createdAt,value
2018-08-24T01:30:57.142Z,1006.90
2018-08-24T01:30:57.656Z,1006.90
2018-08-24T01:30:58.253Z,1006.94
2018-08-24T01:30:58.852Z,1006.90
2018-08-24T01:30:59.450Z,1006.93
2018-08-24T01:31:00.053Z,1006.93
2018-08-24T01:31:00.650Z,1006.95
2018-08-24T01:31:55.195Z,1006.95
2018-08-24T01:31:55.767Z,1006.90
2018-08-24T01:31:56.366Z,1006.92
2018-08-24T01:31:56.967Z,1006.96
2018-08-24T01:31:57.569Z,1006.90
2018-08-24T01:31:58.165Z,1006.96
2018-08-24T01:31:58.768Z,1006.92
2018-08-24T01:31:59.367Z,1006.94
2018-08-24T01:32:53.869Z,1006.96
2018-08-24T01:32:54.446Z,1006.94
2018-08-24T01:32:55.042Z,1006.93
2018-08-24T01:32:55.644Z,1006.93
2018-08-24T01:32:56.241Z,1006.94
2018-08-24T01:32:56.844Z,1006.93
2018-08-24T01:32:57.457Z,1006.98
2018-08-24T01:32:58.041Z,1006.94
2018-08-24T01:33:52.544Z,1006.95
2018-08-24T01:33:53.120Z,1006.94
2018-08-24T01:33:53.723Z,1006.95
2018-08-24T01:33:54.322Z,1006.93
2018-08-24T01:33:54.921Z,1006.98
2018-08-24T01:33:55.519Z,1006.98
2018-08-24T01:33:56.123Z,1006.96
2018-08-24T01:33:56.721Z,1006.97
2018-08-24T01:34:51.226Z,1006.90
2018-08-24T01:34:51.804Z,1006.91
2018-08-24T01:34:52.400Z,1006.91
2018-08-24T01:34:53.030Z,1006.95
2018-08-24T01:34:53.597Z,1006.95
2018-08-24T01:34:54.200Z,1006.93
2018-08-24T01:34:54.794Z,1006.94
2018-08-24T01:34:55.396Z,1006.96
2018-08-24T01:35:49.899Z,1006.94
2018-08-24T01:35:50.479Z,1006.94
2018-08-24T01:35:51.075Z,1006.93
2018-08-24T01:35:51.674Z,1006.93
2018-08-24T01:35:52.270Z,1006.93
2018-08-24T01:35:52.869Z,1006.94
2018-08-24T01:35:53.469Z,1006.94
2018-08-24T01:35:54.069Z,1006.94
2018-08-24T01:36:47.551Z,1006.95
2018-08-24T01:36:48.132Z,1006.96
2018-08-24T01:36:48.729Z,1006.95
2018-08-24T01:36:49.327Z,1006.93
2018-08-24T01:36:49.928Z,1006.94
2018-08-24T01:36:50.527Z,1006.97
2018-08-24T01:36:51.130Z,1006.96
2018-08-24T01:36:51.720Z,1006.95
2018-08-24T01:37:45.204Z,1006.96
2018-08-24T01:37:45.783Z,1006.97
2018-08-24T01:37:46.378Z,1006.97
2018-08-24T01:37:46.978Z,1006.94
2018-08-24T01:37:47.576Z,1006.94
2018-08-24T01:37:48.174Z,1006.95
2018-08-24T01:37:48.775Z,1006.97
2018-08-24T01:37:49.375Z,1006.94
2018-08-24T01:38:42.854Z,1006.94
2018-08-24T01:38:43.429Z,1006.92
2018-08-24T01:38:44.027Z,1006.94
2018-08-24T01:38:44.628Z,1006.94
2018-08-24T01:38:45.227Z,1006.94
2018-08-24T01:38:45.832Z,1006.94
2018-08-24T01:38:46.433Z,1006.96
2018-08-24T01:38:47.033Z,1006.95
2018-08-24T01:39:41.522Z,1006.95
2018-08-24T01:39:42.096Z,1006.94
2018-08-24T01:39:42.691Z,1006.93
2018-08-24T01:39:43.291Z,1006.93
2018-08-24T01:39:43.891Z,1006.95
2018-08-24T01:39:44.494Z,1006.93
2018-08-24T01:39:45.090Z,1006.97
2018-08-24T01:39:45.691Z,1006.95
2018-08-24T01:40:40.197Z,1006.97
2018-08-24T01:40:40.769Z,1006.97
2018-08-24T01:40:41.372Z,1006.96
2018-08-24T01:40:41.969Z,1006.97
2018-08-24T01:40:42.571Z,1006.96
2018-08-24T01:40:43.170Z,1006.99
2018-08-24T01:40:43.769Z,1006.97
2018-08-24T01:40:44.368Z,1006.93
2018-08-24T01:41:38.873Z,1006.99
2018-08-24T01:41:39.446Z,1006.99
2018-08-24T01:41:40.047Z,1006.96
2018-08-24T01:41:40.645Z,1007.00
2018-08-24T01:41:41.246Z,1006.99
2018-08-24T01:41:41.846Z,1007.00
2018-08-24T01:41:42.446Z,1007.02
2018-08-24T01:41:43.046Z,1007.00
2018-08-24T01:42:37.549Z,1006.99
2018-08-24T01:42:38.121Z,1007.00
2018-08-24T01:42:38.721Z,1007.00
2018-08-24T01:42:39.322Z,1007.01
2018-08-24T01:42:39.921Z,1007.00
2018-08-24T01:42:40.521Z,1007.00
2018-08-24T01:42:41.121Z,1007.00
2018-08-24T01:42:41.721Z,1006.98
2018-08-24T01:43:36.226Z,1006.98
2018-08-24T01:43:36.798Z,1006.96
2018-08-24T01:43:37.397Z,1006.95
2018-08-24T01:43:37.996Z,1006.99
2018-08-24T01:43:38.597Z,1006.94
2018-08-24T01:43:39.198Z,1006.94
2018-08-24T01:43:39.797Z,1006.95
2018-08-24T01:43:40.397Z,1006.96
2018-08-24T01:44:34.901Z,1006.98
2018-08-24T01:44:35.472Z,1006.95
2018-08-24T01:44:36.074Z,1006.98
2018-08-24T01:44:36.672Z,1006.98
2018-08-24T01:44:37.273Z,1006.97
2018-08-24T01:44:37.872Z,1006.97
2018-08-24T01:44:38.472Z,1006.96
2018-08-24T01:44:39.071Z,1006.97
2018-08-24T01:45:33.577Z,1006.98
2018-08-24T01:45:34.149Z,1006.97
2018-08-24T01:45:34.749Z,1006.97
2018-08-24T01:45:35.349Z,1006.96
2018-08-24T01:45:35.950Z,1006.99
2018-08-24T01:45:36.549Z,1006.97
2018-08-24T01:45:37.149Z,1006.97
2018-08-24T01:45:37.748Z,1006.98
2018-08-24T01:46:31.230Z,1006.98
2018-08-24T01:46:31.800Z,1006.98
2018-08-24T01:46:32.400Z,1006.98
2018-08-24T01:46:33.001Z,1006.98
2018-08-24T01:46:33.600Z,1006.96
2018-08-24T01:46:34.201Z,1006.96
2018-08-24T01:46:34.800Z,1006.99
2018-08-24T01:46:35.401Z,1006.99
2018-08-24T01:47:28.878Z,1006.96
2018-08-24T01:47:29.453Z,1006.94
2018-08-24T01:47:30.053Z,1006.92
2018-08-24T01:47:30.654Z,1006.95
2018-08-24T01:47:31.253Z,1006.93
2018-08-24T01:47:31.855Z,1006.94
2018-08-24T01:47:32.453Z,1006.92
2018-08-24T01:47:33.053Z,1006.93
2018-08-24T01:48:26.530Z,1006.94
2018-08-24T01:48:27.105Z,1006.95
2018-08-24T01:48:27.736Z,1006.95
2018-08-24T01:48:28.305Z,1006.96
2018-08-24T01:48:28.904Z,1006.94
2018-08-24T01:48:29.504Z,1006.97
2018-08-24T01:48:30.104Z,1006.91
2018-08-24T01:48:30.704Z,1006.96
2018-08-24T01:49:25.210Z,1006.95
2018-08-24T01:49:25.779Z,1006.95
2018-08-24T01:49:26.380Z,1006.96
2018-08-24T01:49:26.979Z,1006.96
2018-08-24T01:49:27.579Z,1006.97
2018-08-24T01:49:28.180Z,1006.96
2018-08-24T01:49:28.781Z,1006.96
2018-08-24T01:49:29.380Z,1006.95
2018-08-24T01:50:22.962Z,1006.97
2018-08-24T01:50:23.536Z,1006.99
2018-08-24T01:50:24.136Z,1007.01
2018-08-24T01:50:24.736Z,1006.99
2018-08-24T01:50:25.338Z,1006.97
2018-08-24T01:50:25.935Z,1006.98
2018-08-24T01:50:26.535Z,1006.97
2018-08-24T01:50:27.135Z,1007.03
2018-08-24T01:51:21.639Z,1007.01
2018-08-24T01:51:22.210Z,1007.02
2018-08-24T01:51:22.809Z,1007.01
2018-08-24T01:51:23.413Z,1007.00
2018-08-24T01:51:24.021Z,1007.02
2018-08-24T01:51:24.609Z,1007.00
2018-08-24T01:51:25.210Z,1007.04
2018-08-24T01:51:25.809Z,1006.99
2018-08-24T01:52:19.288Z,1007.06
2018-08-24T01:52:19.866Z,1007.07
2018-08-24T01:52:20.461Z,1007.05
2018-08-24T01:52:21.061Z,1007.04
2018-08-24T01:52:21.661Z,1007.05
2018-08-24T01:52:22.261Z,1007.03
2018-08-24T01:52:22.861Z,1007.03
2018-08-24T01:52:23.460Z,1007.04
2018-08-24T01:53:17.967Z,1007.06
2018-08-24T01:53:18.538Z,1007.07
2018-08-24T01:53:19.137Z,1007.07
2018-08-24T01:53:19.739Z,1007.08
2018-08-24T01:53:20.337Z,1007.07
2018-08-24T01:53:20.945Z,1007.09
2018-08-24T01:53:21.540Z,1007.07
2018-08-24T01:53:22.137Z,1007.06
2018-08-24T01:54:16.643Z,1007.01
2018-08-24T01:54:17.213Z,1007.00
2018-08-24T01:54:17.813Z,1007.06
2018-08-24T01:54:18.414Z,1007.03
2018-08-24T01:54:19.014Z,1007.02
2018-08-24T01:54:19.613Z,1007.07
2018-08-24T01:54:20.212Z,1007.06
2018-08-24T01:54:20.812Z,1007.02
2018-08-24T01:55:14.289Z,1007.02
2018-08-24T01:55:14.870Z,1007.03
2018-08-24T01:55:15.465Z,1007.06
2018-08-24T01:55:16.066Z,1007.03
2018-08-24T01:55:16.663Z,1007.02
2018-08-24T01:55:17.265Z,1007.04
2018-08-24T01:55:17.872Z,1007.06
2018-08-24T01:55:18.465Z,1007.00
2018-08-24T01:56:12.969Z,1007.05
2018-08-24T01:56:13.540Z,1007.05
2018-08-24T01:56:14.141Z,1007.07
2018-08-24T01:56:14.740Z,1007.03
2018-08-24T01:56:15.343Z,1007.01
2018-08-24T01:56:15.940Z,1007.05
2018-08-24T01:56:16.541Z,1007.06
2018-08-24T01:56:17.141Z,1007.04
2018-08-24T01:57:10.619Z,1007.03
2018-08-24T01:57:11.192Z,1007.02
2018-08-24T01:57:11.793Z,1007.02
2018-08-24T01:57:12.393Z,1007.05
2018-08-24T01:57:12.995Z,1007.02
2018-08-24T01:57:13.592Z,1007.01
2018-08-24T01:57:14.193Z,1007.07
2018-08-24T01:57:14.792Z,1007.03
2018-08-24T01:58:08.272Z,1007.01
2018-08-24T01:58:08.846Z,1007.00
2018-08-24T01:58:09.445Z,1006.98
2018-08-24T01:58:10.044Z,1006.99
2018-08-24T01:58:10.643Z,1006.98
2018-08-24T01:58:11.244Z,1007.00
2018-08-24T01:58:11.843Z,1007.00
2018-08-24T01:58:12.448Z,1007.01
2018-08-24T01:59:05.965Z,1007.01
2018-08-24T01:59:06.550Z,1006.98
2018-08-24T01:59:07.166Z,1006.99
2018-08-24T01:59:07.748Z,1006.96
2018-08-24T01:59:08.343Z,1006.98
2018-08-24T01:59:08.919Z,1006.98
2018-08-24T01:59:09.590Z,1006.98
2018-08-24T01:59:10.174Z,1006.98
2018-08-24T02:00:03.574Z,1006.95
2018-08-24T02:00:04.150Z,1006.98
2018-08-24T02:00:04.748Z,1006.94
2018-08-24T02:00:05.349Z,1006.94
2018-08-24T02:00:05.949Z,1006.97
2018-08-24T02:00:06.547Z,1006.94
2018-08-24T02:00:07.150Z,1006.96
2018-08-24T02:00:07.748Z,1007.00
2018-08-24T02:01:02.252Z,1006.98
2018-08-24T02:01:02.824Z,1006.98
2018-08-24T02:01:03.423Z,1007.00
2018-08-24T02:01:04.025Z,1006.98
2018-08-24T02:01:04.623Z,1007.00
2018-08-24T02:01:05.223Z,1006.98
2018-08-24T02:01:05.823Z,1006.99
2018-08-24T02:01:06.423Z,1006.98
2018-08-24T02:02:00.928Z,1006.96
2018-08-24T02:02:01.500Z,1006.96
2018-08-24T02:02:02.100Z,1006.98
2018-08-24T02:02:02.700Z,1006.98
2018-08-24T02:02:03.299Z,1006.98
2018-08-24T02:02:03.899Z,1006.94
2018-08-24T02:02:04.500Z,1006.99
2018-08-24T02:02:05.099Z,1007.00
2018-08-24T02:02:59.604Z,1007.00
2018-08-24T02:03:00.177Z,1006.98
2018-08-24T02:03:00.775Z,1006.98
2018-08-24T02:03:01.376Z,1007.00
2018-08-24T02:03:01.975Z,1006.97
2018-08-24T02:03:02.576Z,1006.99
2018-08-24T02:03:03.175Z,1006.99
2018-08-24T02:03:03.777Z,1006.98
2018-08-24T02:03:58.279Z,1007.02
2018-08-24T02:03:58.854Z,1006.98
2018-08-24T02:03:59.451Z,1006.99
2018-08-24T02:04:00.052Z,1006.99
2018-08-24T02:04:00.650Z,1006.98
2018-08-24T02:04:01.250Z,1006.99
2018-08-24T02:04:01.850Z,1006.93
2018-08-24T02:04:02.452Z,1006.98
2018-08-24T02:04:56.956Z,1006.95
2018-08-24T02:04:57.528Z,1006.91
2018-08-24T02:04:58.127Z,1006.99
2018-08-24T02:04:58.727Z,1006.99
2018-08-24T02:04:59.326Z,1006.97
2018-08-24T02:04:59.926Z,1006.97
2018-08-24T02:05:00.526Z,1007.00
2018-08-24T02:05:01.125Z,1006.96
2018-08-24T02:05:54.604Z,1006.94
2018-08-24T02:05:55.181Z,1006.92
2018-08-24T02:05:55.777Z,1006.96
2018-08-24T02:05:56.379Z,1006.95
2018-08-24T02:05:56.985Z,1006.96
2018-08-24T02:05:57.578Z,1006.96
2018-08-24T02:05:58.178Z,1006.97
2018-08-24T02:05:58.778Z,1006.94
2018-08-24T02:06:53.283Z,1006.94
2018-08-24T02:06:53.855Z,1006.95
2018-08-24T02:06:54.453Z,1006.96
2018-08-24T02:06:55.054Z,1006.96
2018-08-24T02:06:55.659Z,1006.99
2018-08-24T02:06:56.254Z,1006.96
2018-08-24T02:06:56.853Z,1006.97
2018-08-24T02:06:57.453Z,1006.91
2018-08-24T02:07:51.959Z,1006.98
2018-08-24T02:07:52.529Z,1006.97
2018-08-24T02:07:53.130Z,1006.98
2018-08-24T02:07:53.731Z,1006.97
2018-08-24T02:07:54.334Z,1006.97
2018-08-24T02:07:54.930Z,1006.97
2018-08-24T02:07:55.528Z,1006.99
2018-08-24T02:07:56.135Z,1007.00
2018-08-24T02:08:50.631Z,1006.92
2018-08-24T02:08:51.207Z,1006.93
2018-08-24T02:08:51.805Z,1006.93
2018-08-24T02:08:52.405Z,1006.92
2018-08-24T02:08:53.005Z,1006.95
2018-08-24T02:08:53.605Z,1006.93
2018-08-24T02:08:54.205Z,1006.93
2018-08-24T02:08:54.807Z,1006.92
2018-08-24T02:09:48.388Z,1006.89
2018-08-24T02:09:48.961Z,1006.91
2018-08-24T02:09:49.561Z,1006.91
2018-08-24T02:09:50.161Z,1006.87
2018-08-24T02:09:50.761Z,1006.89
2018-08-24T02:09:51.360Z,1006.89
2018-08-24T02:09:51.961Z,1006.90
2018-08-24T02:09:52.561Z,1006.88
2018-08-24T02:10:47.064Z,1006.93
2018-08-24T02:10:47.634Z,1006.92
2018-08-24T02:10:48.234Z,1006.87
2018-08-24T02:10:48.836Z,1006.93
2018-08-24T02:10:49.434Z,1006.90
2018-08-24T02:10:50.042Z,1006.91
2018-08-24T02:10:50.651Z,1006.93
2018-08-24T02:10:51.235Z,1006.91
2018-08-24T02:11:45.739Z,1006.91
2018-08-24T02:11:46.311Z,1006.93
2018-08-24T02:11:46.913Z,1006.93
2018-08-24T02:11:47.511Z,1006.93
2018-08-24T02:11:48.113Z,1006.90
2018-08-24T02:11:48.710Z,1006.93
2018-08-24T02:11:49.309Z,1006.91
2018-08-24T02:11:49.917Z,1006.93
2018-08-24T02:12:43.390Z,1006.91
2018-08-24T02:12:43.964Z,1006.92
2018-08-24T02:12:44.563Z,1006.91
2018-08-24T02:12:45.163Z,1006.94
2018-08-24T02:12:45.763Z,1006.88
2018-08-24T02:12:46.362Z,1006.91
2018-08-24T02:12:46.963Z,1006.90
2018-08-24T02:12:47.564Z,1006.90
2018-08-24T02:13:41.040Z,1006.87
2018-08-24T02:13:41.616Z,1006.86
2018-08-24T02:13:42.215Z,1006.83
2018-08-24T02:13:42.815Z,1006.87
2018-08-24T02:13:43.415Z,1006.89
2018-08-24T02:13:44.015Z,1006.85
2018-08-24T02:13:44.615Z,1006.83
2018-08-24T02:13:45.225Z,1006.82
2018-08-24T02:14:38.694Z,1006.80
2018-08-24T02:14:39.269Z,1006.83
2018-08-24T02:14:39.869Z,1006.83
2018-08-24T02:14:40.467Z,1006.81
2018-08-24T02:14:41.066Z,1006.83
2018-08-24T02:14:41.667Z,1006.80
2018-08-24T02:14:42.267Z,1006.81
2018-08-24T02:14:42.866Z,1006.83
2018-08-24T02:15:36.347Z,1006.79
2018-08-24T02:15:36.942Z,1006.83
2018-08-24T02:15:37.519Z,1006.80
2018-08-24T02:15:38.117Z,1006.76
2018-08-24T02:15:38.720Z,1006.82
2018-08-24T02:15:39.319Z,1006.79
2018-08-24T02:15:39.919Z,1006.79
2018-08-24T02:15:40.521Z,1006.81
2018-08-24T02:16:33.995Z,1006.83
2018-08-24T02:16:34.573Z,1006.83
2018-08-24T02:16:35.169Z,1006.81
2018-08-24T02:16:35.770Z,1006.82
2018-08-24T02:16:36.369Z,1006.83
2018-08-24T02:16:36.971Z,1006.82
2018-08-24T02:16:37.568Z,1006.83
2018-08-24T02:16:38.170Z,1006.79
2018-08-24T02:17:32.675Z,1006.81
2018-08-24T02:17:33.245Z,1006.81
2018-08-24T02:17:33.845Z,1006.81
2018-08-24T02:17:34.446Z,1006.79
2018-08-24T02:17:35.045Z,1006.83
2018-08-24T02:17:35.644Z,1006.80
2018-08-24T02:17:36.244Z,1006.83
2018-08-24T02:17:36.843Z,1006.82
2018-08-24T02:18:31.350Z,1006.82
2018-08-24T02:18:31.924Z,1006.81
2018-08-24T02:18:32.522Z,1006.82
2018-08-24T02:18:33.121Z,1006.80
2018-08-24T02:18:33.720Z,1006.78
2018-08-24T02:18:34.320Z,1006.78
2018-08-24T02:18:34.919Z,1006.79
2018-08-24T02:18:35.521Z,1006.81
2018-08-24T02:19:29.002Z,1006.81
2018-08-24T02:19:29.574Z,1006.78
2018-08-24T02:19:30.176Z,1006.77
2018-08-24T02:19:30.787Z,1006.79
2018-08-24T02:19:31.372Z,1006.80
2018-08-24T02:19:31.971Z,1006.78
2018-08-24T02:19:32.581Z,1006.78
2018-08-24T02:19:33.172Z,1006.80
2018-08-24T02:20:26.651Z,1006.76
2018-08-24T02:20:27.225Z,1006.75
2018-08-24T02:20:27.825Z,1006.73
2018-08-24T02:20:28.425Z,1006.78
2018-08-24T02:20:29.025Z,1006.74
2018-08-24T02:20:29.625Z,1006.77
2018-08-24T02:20:30.225Z,1006.76
2018-08-24T02:20:30.824Z,1006.75
2018-08-24T02:21:25.323Z,1006.73
2018-08-24T02:21:25.900Z,1006.73
2018-08-24T02:21:26.500Z,1006.73
2018-08-24T02:21:27.101Z,1006.73
2018-08-24T02:21:27.700Z,1006.73
2018-08-24T02:21:28.304Z,1006.76
2018-08-24T02:21:28.898Z,1006.74
2018-08-24T02:21:29.499Z,1006.72
2018-08-24T02:22:22.978Z,1006.68
2018-08-24T02:22:23.553Z,1006.71
2018-08-24T02:22:24.155Z,1006.73
2018-08-24T02:22:24.753Z,1006.72
2018-08-24T02:22:25.351Z,1006.71
2018-08-24T02:22:25.952Z,1006.72
2018-08-24T02:22:26.557Z,1006.72
2018-08-24T02:22:27.156Z,1006.71
2018-08-24T02:23:20.731Z,1006.70
2018-08-24T02:23:21.307Z,1006.74
2018-08-24T02:23:21.909Z,1006.73
2018-08-24T02:23:22.507Z,1006.73
2018-08-24T02:23:23.105Z,1006.68
2018-08-24T02:23:23.711Z,1006.73
2018-08-24T02:23:24.308Z,1006.73
2018-08-24T02:23:24.907Z,1006.70
2018-08-24T02:24:19.410Z,1006.71
2018-08-24T02:24:19.985Z,1006.70
2018-08-24T02:24:20.581Z,1006.73
2018-08-24T02:24:21.182Z,1006.71
2018-08-24T02:24:21.781Z,1006.72
2018-08-24T02:24:22.381Z,1006.72
2018-08-24T02:24:22.983Z,1006.69
2018-08-24T02:24:23.581Z,1006.71
2018-08-24T02:25:17.161Z,1006.70
2018-08-24T02:25:17.746Z,1006.69
2018-08-24T02:25:18.336Z,1006.77
2018-08-24T02:25:18.937Z,1006.72
2018-08-24T02:25:19.537Z,1006.73
2018-08-24T02:25:20.136Z,1006.73
2018-08-24T02:25:20.737Z,1006.73
2018-08-24T02:25:21.336Z,1006.71
2018-08-24T02:26:15.841Z,1006.75
2018-08-24T02:26:16.414Z,1006.76
2018-08-24T02:26:17.012Z,1006.77
2018-08-24T02:26:17.625Z,1006.76
2018-08-24T02:26:18.211Z,1006.76
2018-08-24T02:26:18.811Z,1006.78
2018-08-24T02:26:19.411Z,1006.76
2018-08-24T02:26:20.011Z,1006.75
2018-08-24T02:27:14.515Z,1006.79
2018-08-24T02:27:15.086Z,1006.78
2018-08-24T02:27:15.688Z,1006.78
2018-08-24T02:27:16.287Z,1006.80
2018-08-24T02:27:16.888Z,1006.78
2018-08-24T02:27:17.487Z,1006.75
2018-08-24T02:27:18.087Z,1006.76
2018-08-24T02:27:18.687Z,1006.78
2018-08-24T02:28:12.164Z,1006.78
2018-08-24T02:28:12.744Z,1006.76
2018-08-24T02:28:13.340Z,1006.78
2018-08-24T02:28:13.951Z,1006.75
2018-08-24T02:28:14.539Z,1006.77
2018-08-24T02:28:15.139Z,1006.75
2018-08-24T02:28:15.739Z,1006.76
2018-08-24T02:28:16.342Z,1006.75
2018-08-24T02:29:10.846Z,1006.83
2018-08-24T02:29:11.418Z,1006.81
2018-08-24T02:29:12.014Z,1006.82
2018-08-24T02:29:12.613Z,1006.83
2018-08-24T02:29:13.213Z,1006.82
2018-08-24T02:29:13.814Z,1006.82
2018-08-24T02:29:14.413Z,1006.85
2018-08-24T02:29:15.014Z,1006.84
2018-08-24T02:30:09.518Z,1006.87
2018-08-24T02:30:10.091Z,1006.83
2018-08-24T02:30:10.691Z,1006.86
2018-08-24T02:30:11.296Z,1006.87
2018-08-24T02:30:11.894Z,1006.86
2018-08-24T02:30:12.490Z,1006.90
2018-08-24T02:30:13.092Z,1006.83
2018-08-24T02:30:13.690Z,1006.90
2018-08-24T02:31:07.279Z,1006.88
2018-08-24T02:31:07.890Z,1006.87
2018-08-24T02:31:08.496Z,1006.84
2018-08-24T02:31:09.102Z,1006.88
2018-08-24T02:31:09.702Z,1006.84
2018-08-24T02:31:10.270Z,1006.84
2018-08-24T02:31:10.883Z,1006.87
2018-08-24T02:31:11.522Z,1006.90
2018-08-24T02:32:05.956Z,1006.86
2018-08-24T02:32:06.521Z,1006.90
2018-08-24T02:32:07.120Z,1006.87
2018-08-24T02:32:07.721Z,1006.87
2018-08-24T02:32:08.320Z,1006.87
2018-08-24T02:32:08.919Z,1006.88
2018-08-24T02:32:09.520Z,1006.87
2018-08-24T02:32:10.120Z,1006.90
2018-08-24T02:33:04.627Z,1006.88
2018-08-24T02:33:05.197Z,1006.87
2018-08-24T02:33:05.794Z,1006.87
2018-08-24T02:33:06.396Z,1006.87
2018-08-24T02:33:06.999Z,1006.88
2018-08-24T02:33:07.613Z,1006.88
2018-08-24T02:33:08.194Z,1006.89
2018-08-24T02:33:08.794Z,1006.88
2018-08-24T02:34:03.297Z,1006.85
2018-08-24T02:34:03.872Z,1006.85
2018-08-24T02:34:04.472Z,1006.89
2018-08-24T02:34:05.072Z,1006.87
2018-08-24T02:34:05.670Z,1006.90
2018-08-24T02:34:06.271Z,1006.86
2018-08-24T02:34:06.871Z,1006.89
2018-08-24T02:34:07.472Z,1006.87
2018-08-24T02:35:00.948Z,1006.83
2018-08-24T02:35:01.541Z,1006.89
2018-08-24T02:35:02.122Z,1006.86
2018-08-24T02:35:02.723Z,1006.87
2018-08-24T02:35:03.322Z,1006.86
2018-08-24T02:35:03.922Z,1006.85
2018-08-24T02:35:04.522Z,1006.86
2018-08-24T02:35:05.123Z,1006.83
2018-08-24T02:35:59.625Z,1006.85
2018-08-24T02:36:00.200Z,1006.89
2018-08-24T02:36:00.798Z,1006.87
2018-08-24T02:36:01.400Z,1006.88
2018-08-24T02:36:01.999Z,1006.91
2018-08-24T02:36:02.603Z,1006.90
2018-08-24T02:36:03.197Z,1006.89
2018-08-24T02:36:03.799Z,1006.89
2018-08-24T02:36:58.300Z,1006.90
2018-08-24T02:36:58.877Z,1006.90
2018-08-24T02:36:59.473Z,1006.89
2018-08-24T02:37:00.075Z,1006.91
2018-08-24T02:37:00.674Z,1006.90
2018-08-24T02:37:01.273Z,1006.90
2018-08-24T02:37:01.879Z,1006.87
2018-08-24T02:37:02.473Z,1006.90
2018-08-24T02:37:56.979Z,1006.91
2018-08-24T02:37:57.557Z,1006.92
2018-08-24T02:37:58.154Z,1006.94
2018-08-24T02:37:58.752Z,1006.93
2018-08-24T02:37:59.350Z,1006.91
2018-08-24T02:37:59.950Z,1006.90
2018-08-24T02:38:00.550Z,1006.90
2018-08-24T02:38:01.150Z,1006.90
2018-08-24T02:38:54.628Z,1006.88
2018-08-24T02:38:55.215Z,1006.89
2018-08-24T02:38:55.803Z,1006.90
2018-08-24T02:38:56.403Z,1006.91
2018-08-24T02:38:57.003Z,1006.90
2018-08-24T02:38:57.602Z,1006.94
2018-08-24T02:38:58.203Z,1006.94
2018-08-24T02:38:58.804Z,1006.94
2018-08-24T02:39:53.303Z,1006.93
2018-08-24T02:39:53.881Z,1006.94
2018-08-24T02:39:54.478Z,1006.93
2018-08-24T02:39:55.078Z,1006.92
2018-08-24T02:39:55.676Z,1006.93
2018-08-24T02:39:56.278Z,1006.92
2018-08-24T02:39:56.879Z,1006.92
2018-08-24T02:39:57.477Z,1006.93
2018-08-24T02:40:51.063Z,1006.90
2018-08-24T02:40:51.634Z,1006.89
2018-08-24T02:40:52.232Z,1006.90
2018-08-24T02:40:52.833Z,1006.87
2018-08-24T02:40:53.435Z,1006.91
2018-08-24T02:40:54.056Z,1006.92
2018-08-24T02:40:54.632Z,1006.93
2018-08-24T02:40:55.235Z,1006.95
2018-08-24T02:41:48.713Z,1006.93
2018-08-24T02:41:49.287Z,1006.91
2018-08-24T02:41:49.884Z,1006.91
2018-08-24T02:41:50.487Z,1006.91
2018-08-24T02:41:51.084Z,1006.90
2018-08-24T02:41:51.691Z,1006.90
2018-08-24T02:41:52.282Z,1006.92
2018-08-24T02:41:52.882Z,1006.92
2018-08-24T02:42:47.395Z,1006.94
2018-08-24T02:42:47.968Z,1006.91
2018-08-24T02:42:48.563Z,1006.92
2018-08-24T02:42:49.163Z,1006.87
2018-08-24T02:42:49.759Z,1006.90
2018-08-24T02:42:50.362Z,1006.89
2018-08-24T02:42:50.958Z,1006.90
2018-08-24T02:42:51.558Z,1006.90
2018-08-24T02:43:46.070Z,1006.87
2018-08-24T02:43:46.636Z,1006.86
2018-08-24T02:43:47.235Z,1006.86
2018-08-24T02:43:47.836Z,1006.90
2018-08-24T02:43:48.436Z,1006.92
2018-08-24T02:43:49.036Z,1006.91
2018-08-24T02:43:49.635Z,1006.91
2018-08-24T02:43:50.238Z,1006.92
2018-08-24T02:44:44.740Z,1006.89
2018-08-24T02:44:45.312Z,1006.88
2018-08-24T02:44:45.910Z,1006.88
2018-08-24T02:44:46.512Z,1006.90
2018-08-24T02:44:47.110Z,1006.90
2018-08-24T02:44:47.712Z,1006.86
2018-08-24T02:44:48.310Z,1006.88
2018-08-24T02:44:48.909Z,1006.88
2018-08-24T02:45:43.414Z,1006.87
2018-08-24T02:45:43.986Z,1006.87
2018-08-24T02:45:44.586Z,1006.86
2018-08-24T02:45:45.187Z,1006.88
2018-08-24T02:45:45.786Z,1006.85
2018-08-24T02:45:46.386Z,1006.87
2018-08-24T02:45:46.986Z,1006.88
2018-08-24T02:45:47.586Z,1006.87
2018-08-24T02:46:41.064Z,1006.85
2018-08-24T02:46:41.638Z,1006.85
2018-08-24T02:46:42.237Z,1006.84
2018-08-24T02:46:42.839Z,1006.84
2018-08-24T02:46:43.438Z,1006.84
2018-08-24T02:46:44.039Z,1006.85
2018-08-24T02:46:44.638Z,1006.85
2018-08-24T02:46:45.238Z,1006.84
2018-08-24T02:47:38.715Z,1006.84
2018-08-24T02:47:39.294Z,1006.88
2018-08-24T02:47:39.891Z,1006.84
2018-08-24T02:47:40.491Z,1006.83
2018-08-24T02:47:41.090Z,1006.81
2018-08-24T02:47:41.690Z,1006.86
2018-08-24T02:47:42.289Z,1006.84
2018-08-24T02:47:42.889Z,1006.85
2018-08-24T02:48:36.382Z,1006.88
2018-08-24T02:48:36.944Z,1006.84
2018-08-24T02:48:37.542Z,1006.89
2018-08-24T02:48:38.143Z,1006.85
2018-08-24T02:48:38.742Z,1006.88
2018-08-24T02:48:39.342Z,1006.85
2018-08-24T02:48:39.942Z,1006.87
2018-08-24T02:48:40.541Z,1006.84
2018-08-24T02:49:34.018Z,1006.88
2018-08-24T02:49:34.596Z,1006.89
2018-08-24T02:49:35.196Z,1006.87
2018-08-24T02:49:35.796Z,1006.87
2018-08-24T02:49:36.394Z,1006.86
2018-08-24T02:49:36.993Z,1006.89
2018-08-24T02:49:37.594Z,1006.88
2018-08-24T02:49:38.196Z,1006.88
2018-08-24T02:50:31.672Z,1006.90
2018-08-24T02:50:32.245Z,1006.90
2018-08-24T02:50:32.849Z,1006.91
2018-08-24T02:50:33.445Z,1006.90
2018-08-24T02:50:34.047Z,1006.87
2018-08-24T02:50:34.645Z,1006.90
2018-08-24T02:50:35.255Z,1006.89
2018-08-24T02:50:35.844Z,1006.87
2018-08-24T02:51:29.324Z,1006.92
2018-08-24T02:51:29.896Z,1006.95
2018-08-24T02:51:30.495Z,1006.92
2018-08-24T02:51:31.095Z,1006.93
2018-08-24T02:51:31.698Z,1006.95
2018-08-24T02:51:32.296Z,1006.95
2018-08-24T02:51:32.897Z,1006.96
2018-08-24T02:51:33.497Z,1006.96
2018-08-24T02:52:27.998Z,1006.94
2018-08-24T02:52:28.576Z,1006.92
2018-08-24T02:52:29.174Z,1006.92
2018-08-24T02:52:29.772Z,1006.93
2018-08-24T02:52:30.372Z,1006.93
2018-08-24T02:52:30.972Z,1006.89
2018-08-24T02:52:31.572Z,1006.92
2018-08-24T02:52:32.171Z,1006.94
2018-08-24T02:53:25.693Z,1006.91
2018-08-24T02:53:26.227Z,1006.89
2018-08-24T02:53:26.826Z,1006.92
2018-08-24T02:53:27.426Z,1006.93
2018-08-24T02:53:28.025Z,1006.91
2018-08-24T02:53:28.634Z,1006.89
2018-08-24T02:53:29.226Z,1006.94
2018-08-24T02:53:29.825Z,1006.95
2018-08-24T02:54:24.325Z,1006.90
2018-08-24T02:54:24.910Z,1006.92
2018-08-24T02:54:25.500Z,1006.91
2018-08-24T02:54:26.101Z,1006.95
2018-08-24T02:54:26.700Z,1006.92
2018-08-24T02:54:27.303Z,1006.94
2018-08-24T02:54:27.899Z,1006.91
2018-08-24T02:54:28.507Z,1006.93
2018-08-24T02:55:23.005Z,1006.95
2018-08-24T02:55:23.576Z,1006.93
2018-08-24T02:55:24.175Z,1006.89
2018-08-24T02:55:24.780Z,1006.94
2018-08-24T02:55:25.376Z,1006.91
2018-08-24T02:55:25.984Z,1006.92
2018-08-24T02:55:26.573Z,1006.91
2018-08-24T02:55:27.174Z,1006.91
2018-08-24T02:56:21.679Z,1006.90
2018-08-24T02:56:22.253Z,1006.93
2018-08-24T02:56:22.850Z,1006.89
2018-08-24T02:56:23.453Z,1006.89
2018-08-24T02:56:24.053Z,1006.91
2018-08-24T02:56:24.652Z,1006.92
2018-08-24T02:56:25.255Z,1006.92
2018-08-24T02:56:25.851Z,1006.95
2018-08-24T02:57:19.330Z,1006.92
2018-08-24T02:57:19.906Z,1006.94
2018-08-24T02:57:20.502Z,1006.96
2018-08-24T02:57:21.104Z,1006.95
2018-08-24T02:57:21.703Z,1006.92
2018-08-24T02:57:22.303Z,1006.93
2018-08-24T02:57:22.904Z,1006.93
2018-08-24T02:57:23.506Z,1006.95
2018-08-24T02:58:16.986Z,1006.97
2018-08-24T02:58:17.557Z,1006.96
2018-08-24T02:58:18.157Z,1006.97
2018-08-24T02:58:18.755Z,1006.96
2018-08-24T02:58:19.355Z,1006.94
2018-08-24T02:58:19.958Z,1006.96
2018-08-24T02:58:20.556Z,1006.95